weather.gov     
National Weather Service

Terminal Aerodrome Forecast
NWS Homepage
This page is being discontinued on March 12, 2014.
The same data is available at this site. Please update your bookmarks.
Thank you, and we apologize for the inconvenience.
Please send an email to SR-SRH.Webmaster@noaa.gov with any concerns.


Current Version
Previous Version:    01  02  03  04  05  06  07  08  09  10  11  12  13  14  15  16  17  18  19  20  21  22  23  24  25  
[Printable]
746
FTUS42 TJSJ 181700
TAFJMZ
TAF
TJMZ 181739Z 1818/1918 25009KT P6SM VCSH SCT025 BKN040
      TEMPO 1818/1822 VRB15G25KT 3SM +SHRA BKN022 OVC050
     FM182230 08006KT P6SM FEW025 SCT050 SCT080
     FM191430 25008KT P6SM SCT025 BKN050
      AMD NOT SKED=


U.S. Dept. of Commerce
NOAA National Weather Service
1325 East West Highway
Silver Spring, MD 20910
E-mail: w-nws.webmaster@noaa.gov
Page last modified: May 16, 2007
NATIONAL WEATHER SERVICE: for Safety, for Work, for Fun - FOR LIFE